sensor_id;sensor_type;location;lat;lon;timestamp;P1;durP1;ratioP1;P2;durP2;ratioP2
8050;SDS011;4068;42.158;24.732;2023-05-23T00:00:54;7.57;;;5.80;;
8050;SDS011;4068;42.158;24.732;2023-05-23T00:03:21;8.13;;;6.68;;
8050;SDS011;4068;42.158;24.732;2023-05-23T00:05:47;8.88;;;6.30;;
8050;SDS011;4068;42.158;24.732;2023-05-23T00:08:13;10.40;;;6.18;;
8050;SDS011;4068;42.158;24.732;2023-05-23T00:10:38;8.07;;;6.07;;
8050;SDS011;4068;42.158;24.732;2023-05-23T00:13:04;8.57;;;5.60;;
8050;SDS011;4068;42.158;24.732;2023-05-23T00:15:33;8.45;;;5.82;;
8050;SDS011;4068;42.158;24.732;2023-05-23T00:18:01;6.55;;;5.88;;
8050;SDS011;4068;42.158;24.732;2023-05-23T00:20:26;10.63;;;6.13;;
8050;SDS011;4068;42.158;24.732;2023-05-23T00:22:53;6.25;;;5.50;;
8050;SDS011;4068;42.158;24.732;2023-05-23T00:25:22;6.90;;;5.32;;
8050;SDS011;4068;42.158;24.732;2023-05-23T00:27:48;6.38;;;5.57;;
8050;SDS011;4068;42.158;24.732;2023-05-23T00:30:13;6.15;;;5.18;;
8050;SDS011;4068;42.158;24.732;2023-05-23T00:32:39;7.45;;;5.63;;
8050;SDS011;4068;42.158;24.732;2023-05-23T00:35:04;8.07;;;5.00;;
8050;SDS011;4068;42.158;24.732;2023-05-23T00:37:30;5.68;;;5.13;;
8050;SDS011;4068;42.158;24.732;2023-05-23T00:39:56;6.30;;;5.45;;
8050;SDS011;4068;42.158;24.732;2023-05-23T00:42:21;9.13;;;5.20;;
8050;SDS011;4068;42.158;24.732;2023-05-23T00:44:47;8.15;;;5.13;;
8050;SDS011;4068;42.158;24.732;2023-05-23T00:47:12;8.88;;;4.88;;
8050;SDS011;4068;42.158;24.732;2023-05-23T00:49:38;6.25;;;4.90;;
8050;SDS011;4068;42.158;24.732;2023-05-23T00:52:05;6.82;;;5.18;;
8050;SDS011;4068;42.158;24.732;2023-05-23T00:54:31;8.70;;;5.47;;
8050;SDS011;4068;42.158;24.732;2023-05-23T00:56:57;6.63;;;4.53;;
8050;SDS011;4068;42.158;24.732;2023-05-23T00:59:24;6.57;;;5.15;;
8050;SDS011;4068;42.158;24.732;2023-05-23T01:01:50;9.50;;;5.53;;
8050;SDS011;4068;42.158;24.732;2023-05-23T01:04:17;6.60;;;5.07;;
8050;SDS011;4068;42.158;24.732;2023-05-23T01:06:44;7.70;;;5.00;;
8050;SDS011;4068;42.158;24.732;2023-05-23T01:09:16;9.80;;;5.35;;
8050;SDS011;4068;42.158;24.732;2023-05-23T01:14:23;7.28;;;5.35;;
8050;SDS011;4068;42.158;24.732;2023-05-23T01:17:00;7.65;;;4.55;;
8050;SDS011;4068;42.158;24.732;2023-05-23T01:22:10;7.50;;;5.20;;
8050;SDS011;4068;42.158;24.732;2023-05-23T01:24:54;5.38;;;4.80;;
8050;SDS011;4068;42.158;24.732;2023-05-23T01:30:18;10.02;;;5.93;;
8050;SDS011;4068;42.158;24.732;2023-05-23T01:32:45;6.28;;;4.90;;
8050;SDS011;4068;42.158;24.732;2023-05-23T01:35:13;7.70;;;5.22;;
8050;SDS011;4068;42.158;24.732;2023-05-23T01:37:44;6.63;;;5.18;;
8050;SDS011;4068;42.158;24.732;2023-05-23T01:40:10;6.85;;;5.53;;
8050;SDS011;4068;42.158;24.732;2023-05-23T01:42:36;5.63;;;5.03;;
8050;SDS011;4068;42.158;24.732;2023-05-23T01:45:01;6.13;;;5.35;;
8050;SDS011;4068;42.158;24.732;2023-05-23T01:47:27;9.60;;;5.35;;
8050;SDS011;4068;42.158;24.732;2023-05-23T01:49:53;7.38;;;5.72;;
8050;SDS011;4068;42.158;24.732;2023-05-23T01:52:21;6.32;;;5.35;;
8050;SDS011;4068;42.158;24.732;2023-05-23T01:54:47;10.35;;;5.53;;
8050;SDS011;4068;42.158;24.732;2023-05-23T01:57:14;6.25;;;5.07;;
8050;SDS011;4068;42.158;24.732;2023-05-23T01:59:40;7.55;;;5.18;;
8050;SDS011;4068;42.158;24.732;2023-05-23T02:02:05;6.32;;;5.10;;
8050;SDS011;4068;42.158;24.732;2023-05-23T02:04:31;6.45;;;5.47;;
8050;SDS011;4068;42.158;24.732;2023-05-23T02:06:56;8.05;;;4.93;;
8050;SDS011;4068;42.158;24.732;2023-05-23T02:09:21;6.78;;;5.55;;
8050;SDS011;4068;42.158;24.732;2023-05-23T02:11:47;10.77;;;5.55;;
8050;SDS011;4068;42.158;24.732;2023-05-23T02:14:12;10.20;;;5.13;;
8050;SDS011;4068;42.158;24.732;2023-05-23T02:16:38;6.20;;;5.03;;
8050;SDS011;4068;42.158;24.732;2023-05-23T02:19:03;6.50;;;5.10;;
8050;SDS011;4068;42.158;24.732;2023-05-23T02:21:29;6.40;;;4.93;;
8050;SDS011;4068;42.158;24.732;2023-05-23T02:23:55;6.03;;;5.43;;
8050;SDS011;4068;42.158;24.732;2023-05-23T02:26:21;6.78;;;4.68;;
8050;SDS011;4068;42.158;24.732;2023-05-23T02:28:46;5.28;;;4.78;;
8050;SDS011;4068;42.158;24.732;2023-05-23T02:31:12;5.80;;;4.90;;
8050;SDS011;4068;42.158;24.732;2023-05-23T02:33:37;6.28;;;4.85;;
8050;SDS011;4068;42.158;24.732;2023-05-23T02:36:03;5.53;;;4.63;;
8050;SDS011;4068;42.158;24.732;2023-05-23T02:38:29;8.55;;;5.13;;
8050;SDS011;4068;42.158;24.732;2023-05-23T02:40:55;7.55;;;5.18;;
8050;SDS011;4068;42.158;24.732;2023-05-23T02:43:21;7.22;;;5.10;;
8050;SDS011;4068;42.158;24.732;2023-05-23T02:45:47;7.45;;;4.90;;
8050;SDS011;4068;42.158;24.732;2023-05-23T02:48:13;5.65;;;5.03;;
8050;SDS011;4068;42.158;24.732;2023-05-23T02:50:38;9.43;;;5.00;;
8050;SDS011;4068;42.158;24.732;2023-05-23T02:53:03;7.22;;;5.07;;
8050;SDS011;4068;42.158;24.732;2023-05-23T02:55:29;7.53;;;4.68;;
8050;SDS011;4068;42.158;24.732;2023-05-23T02:57:56;12.18;;;4.80;;
8050;SDS011;4068;42.158;24.732;2023-05-23T03:00:23;7.03;;;5.18;;
8050;SDS011;4068;42.158;24.732;2023-05-23T03:02:48;7.75;;;5.00;;
8050;SDS011;4068;42.158;24.732;2023-05-23T03:05:14;7.75;;;5.53;;
8050;SDS011;4068;42.158;24.732;2023-05-23T03:07:39;6.40;;;5.00;;
8050;SDS011;4068;42.158;24.732;2023-05-23T03:10:05;9.35;;;4.75;;
8050;SDS011;4068;42.158;24.732;2023-05-23T03:12:31;7.22;;;5.18;;
8050;SDS011;4068;42.158;24.732;2023-05-23T03:14:56;10.40;;;5.22;;
8050;SDS011;4068;42.158;24.732;2023-05-23T03:17:23;10.43;;;5.20;;
8050;SDS011;4068;42.158;24.732;2023-05-23T03:19:49;7.95;;;4.78;;
8050;SDS011;4068;42.158;24.732;2023-05-23T03:22:15;7.35;;;4.93;;
8050;SDS011;4068;42.158;24.732;2023-05-23T03:24:40;5.60;;;5.00;;
8050;SDS011;4068;42.158;24.732;2023-05-23T03:27:06;9.88;;;4.80;;
8050;SDS011;4068;42.158;24.732;2023-05-23T03:29:31;8.40;;;5.28;;
8050;SDS011;4068;42.158;24.732;2023-05-23T03:31:57;10.57;;;5.00;;
8050;SDS011;4068;42.158;24.732;2023-05-23T03:34:22;9.75;;;5.30;;
8050;SDS011;4068;42.158;24.732;2023-05-23T03:36:50;11.52;;;5.50;;
8050;SDS011;4068;42.158;24.732;2023-05-23T03:39:16;16.20;;;5.75;;
8050;SDS011;4068;42.158;24.732;2023-05-23T03:41:41;16.55;;;5.68;;
8050;SDS011;4068;42.158;24.732;2023-05-23T03:44:06;9.25;;;5.93;;
8050;SDS011;4068;42.158;24.732;2023-05-23T03:46:32;9.27;;;5.65;;
8050;SDS011;4068;42.158;24.732;2023-05-23T03:48:57;7.53;;;5.78;;
8050;SDS011;4068;42.158;24.732;2023-05-23T03:51:24;9.70;;;6.38;;
8050;SDS011;4068;42.158;24.732;2023-05-23T03:53:49;11.73;;;5.85;;
8050;SDS011;4068;42.158;24.732;2023-05-23T03:56:15;9.18;;;5.63;;
8050;SDS011;4068;42.158;24.732;2023-05-23T03:58:40;9.02;;;5.70;;
8050;SDS011;4068;42.158;24.732;2023-05-23T04:01:06;8.10;;;5.88;;
8050;SDS011;4068;42.158;24.732;2023-05-23T04:03:31;17.98;;;6.85;;
8050;SDS011;4068;42.158;24.732;2023-05-23T04:05:57;10.27;;;5.60;;
8050;SDS011;4068;42.158;24.732;2023-05-23T04:08:24;12.25;;;6.93;;
8050;SDS011;4068;42.158;24.732;2023-05-23T04:10:50;13.85;;;6.63;;
8050;SDS011;4068;42.158;24.732;2023-05-23T04:13:16;8.70;;;5.82;;
8050;SDS011;4068;42.158;24.732;2023-05-23T04:15:41;10.73;;;5.65;;
8050;SDS011;4068;42.158;24.732;2023-05-23T04:18:07;9.90;;;5.40;;
8050;SDS011;4068;42.158;24.732;2023-05-23T04:20:33;7.40;;;5.15;;
8050;SDS011;4068;42.158;24.732;2023-05-23T04:22:59;9.27;;;4.82;;
8050;SDS011;4068;42.158;24.732;2023-05-23T04:25:24;8.25;;;4.60;;
8050;SDS011;4068;42.158;24.732;2023-05-23T04:27:50;4.63;;;4.20;;
8050;SDS011;4068;42.158;24.732;2023-05-23T04:30:16;5.80;;;4.00;;
8050;SDS011;4068;42.158;24.732;2023-05-23T04:32:42;11.73;;;3.70;;
8050;SDS011;4068;42.158;24.732;2023-05-23T04:35:08;7.57;;;4.15;;
8050;SDS011;4068;42.158;24.732;2023-05-23T04:37:34;7.18;;;4.20;;
8050;SDS011;4068;42.158;24.732;2023-05-23T04:40:01;8.05;;;4.05;;
8050;SDS011;4068;42.158;24.732;2023-05-23T04:42:28;4.68;;;4.07;;
8050;SDS011;4068;42.158;24.732;2023-05-23T04:44:53;6.45;;;4.53;;
8050;SDS011;4068;42.158;24.732;2023-05-23T04:47:21;7.63;;;4.15;;
8050;SDS011;4068;42.158;24.732;2023-05-23T04:49:48;11.63;;;4.40;;
8050;SDS011;4068;42.158;24.732;2023-05-23T04:52:14;7.18;;;4.25;;
8050;SDS011;4068;42.158;24.732;2023-05-23T04:54:43;4.75;;;3.92;;
8050;SDS011;4068;42.158;24.732;2023-05-23T04:57:10;4.30;;;3.90;;
8050;SDS011;4068;42.158;24.732;2023-05-23T04:59:36;9.07;;;4.57;;
8050;SDS011;4068;42.158;24.732;2023-05-23T05:02:02;7.60;;;4.10;;
8050;SDS011;4068;42.158;24.732;2023-05-23T05:04:27;4.53;;;4.05;;
8050;SDS011;4068;42.158;24.732;2023-05-23T05:06:53;5.28;;;4.00;;
8050;SDS011;4068;42.158;24.732;2023-05-23T05:09:18;5.30;;;4.10;;
8050;SDS011;4068;42.158;24.732;2023-05-23T05:11:45;7.55;;;4.15;;
8050;SDS011;4068;42.158;24.732;2023-05-23T05:14:11;6.40;;;4.75;;
8050;SDS011;4068;42.158;24.732;2023-05-23T05:16:36;9.40;;;4.68;;
8050;SDS011;4068;42.158;24.732;2023-05-23T05:19:02;7.32;;;4.13;;
8050;SDS011;4068;42.158;24.732;2023-05-23T05:21:27;4.63;;;4.05;;
8050;SDS011;4068;42.158;24.732;2023-05-23T05:23:52;5.38;;;4.30;;
8050;SDS011;4068;42.158;24.732;2023-05-23T05:26:18;5.15;;;4.65;;
8050;SDS011;4068;42.158;24.732;2023-05-23T05:28:43;7.45;;;4.18;;
8050;SDS011;4068;42.158;24.732;2023-05-23T05:31:09;6.93;;;4.30;;
8050;SDS011;4068;42.158;24.732;2023-05-23T05:33:39;9.80;;;4.65;;
8050;SDS011;4068;42.158;24.732;2023-05-23T05:36:05;6.20;;;4.53;;
8050;SDS011;4068;42.158;24.732;2023-05-23T05:38:31;6.55;;;4.03;;
8050;SDS011;4068;42.158;24.732;2023-05-23T05:40:57;7.90;;;4.35;;
8050;SDS011;4068;42.158;24.732;2023-05-23T05:43:24;4.80;;;3.58;;
8050;SDS011;4068;42.158;24.732;2023-05-23T05:45:50;6.00;;;3.92;;
8050;SDS011;4068;42.158;24.732;2023-05-23T05:48:16;7.07;;;4.40;;
8050;SDS011;4068;42.158;24.732;2023-05-23T05:50:41;11.07;;;4.20;;
8050;SDS011;4068;42.158;24.732;2023-05-23T05:53:09;7.15;;;4.25;;
8050;SDS011;4068;42.158;24.732;2023-05-23T05:55:35;15.35;;;4.70;;
8050;SDS011;4068;42.158;24.732;2023-05-23T05:58:00;5.63;;;4.00;;
8050;SDS011;4068;42.158;24.732;2023-05-23T06:00:26;8.60;;;4.72;;
8050;SDS011;4068;42.158;24.732;2023-05-23T06:02:51;4.60;;;4.10;;
8050;SDS011;4068;42.158;24.732;2023-05-23T06:05:21;7.50;;;4.38;;
8050;SDS011;4068;42.158;24.732;2023-05-23T06:07:47;5.70;;;4.18;;
8050;SDS011;4068;42.158;24.732;2023-05-23T06:10:14;6.57;;;3.85;;
8050;SDS011;4068;42.158;24.732;2023-05-23T06:12:40;4.22;;;3.80;;
8050;SDS011;4068;42.158;24.732;2023-05-23T06:15:06;6.75;;;3.90;;
8050;SDS011;4068;42.158;24.732;2023-05-23T06:17:32;5.05;;;3.88;;
8050;SDS011;4068;42.158;24.732;2023-05-23T06:19:57;8.15;;;5.72;;
8050;SDS011;4068;42.158;24.732;2023-05-23T06:22:23;5.13;;;4.05;;
8050;SDS011;4068;42.158;24.732;2023-05-23T06:24:48;7.78;;;4.00;;
8050;SDS011;4068;42.158;24.732;2023-05-23T06:27:14;7.03;;;4.13;;
8050;SDS011;4068;42.158;24.732;2023-05-23T06:29:39;10.13;;;4.53;;
8050;SDS011;4068;42.158;24.732;2023-05-23T06:32:05;10.77;;;4.38;;
8050;SDS011;4068;42.158;24.732;2023-05-23T06:34:30;7.40;;;4.18;;
8050;SDS011;4068;42.158;24.732;2023-05-23T06:36:56;5.70;;;3.97;;
8050;SDS011;4068;42.158;24.732;2023-05-23T06:39:21;9.68;;;4.25;;
8050;SDS011;4068;42.158;24.732;2023-05-23T06:41:47;4.75;;;3.88;;
8050;SDS011;4068;42.158;24.732;2023-05-23T06:44:12;9.27;;;5.35;;
8050;SDS011;4068;42.158;24.732;2023-05-23T06:46:38;6.20;;;4.47;;
8050;SDS011;4068;42.158;24.732;2023-05-23T06:49:04;5.43;;;4.28;;
8050;SDS011;4068;42.158;24.732;2023-05-23T06:51:29;6.90;;;4.75;;
8050;SDS011;4068;42.158;24.732;2023-05-23T06:53:55;7.68;;;4.60;;
8050;SDS011;4068;42.158;24.732;2023-05-23T06:56:21;7.03;;;4.35;;
8050;SDS011;4068;42.158;24.732;2023-05-23T06:58:47;6.95;;;5.00;;
8050;SDS011;4068;42.158;24.732;2023-05-23T07:01:13;4.70;;;4.10;;
8050;SDS011;4068;42.158;24.732;2023-05-23T07:03:38;8.32;;;4.22;;
8050;SDS011;4068;42.158;24.732;2023-05-23T07:06:05;6.55;;;4.03;;
8050;SDS011;4068;42.158;24.732;2023-05-23T07:08:31;6.32;;;4.60;;
8050;SDS011;4068;42.158;24.732;2023-05-23T07:10:57;7.68;;;4.68;;
8050;SDS011;4068;42.158;24.732;2023-05-23T07:13:22;5.47;;;4.00;;
8050;SDS011;4068;42.158;24.732;2023-05-23T07:15:48;9.15;;;4.93;;
8050;SDS011;4068;42.158;24.732;2023-05-23T07:18:13;7.15;;;3.45;;
8050;SDS011;4068;42.158;24.732;2023-05-23T07:20:38;16.98;;;5.65;;
8050;SDS011;4068;42.158;24.732;2023-05-23T07:23:04;8.35;;;4.78;;
8050;SDS011;4068;42.158;24.732;2023-05-23T07:25:29;8.60;;;4.22;;
8050;SDS011;4068;42.158;24.732;2023-05-23T07:27:55;8.52;;;4.25;;
8050;SDS011;4068;42.158;24.732;2023-05-23T07:30:20;5.97;;;4.10;;
8050;SDS011;4068;42.158;24.732;2023-05-23T07:32:47;5.20;;;3.70;;
8050;SDS011;4068;42.158;24.732;2023-05-23T07:35:13;6.65;;;4.63;;
8050;SDS011;4068;42.158;24.732;2023-05-23T07:37:39;10.30;;;5.53;;
8050;SDS011;4068;42.158;24.732;2023-05-23T07:40:04;6.75;;;4.18;;
8050;SDS011;4068;42.158;24.732;2023-05-23T07:42:30;13.73;;;5.10;;
8050;SDS011;4068;42.158;24.732;2023-05-23T07:44:56;5.63;;;4.07;;
8050;SDS011;4068;42.158;24.732;2023-05-23T07:47:21;10.13;;;4.00;;
8050;SDS011;4068;42.158;24.732;2023-05-23T07:49:48;13.88;;;4.60;;
8050;SDS011;4068;42.158;24.732;2023-05-23T07:52:16;12.38;;;4.55;;
8050;SDS011;4068;42.158;24.732;2023-05-23T07:54:41;7.78;;;4.85;;
8050;SDS011;4068;42.158;24.732;2023-05-23T07:57:07;6.25;;;4.22;;
8050;SDS011;4068;42.158;24.732;2023-05-23T07:59:33;7.05;;;4.07;;
8050;SDS011;4068;42.158;24.732;2023-05-23T08:02:00;5.40;;;4.00;;
8050;SDS011;4068;42.158;24.732;2023-05-23T08:04:25;6.10;;;4.20;;
8050;SDS011;4068;42.158;24.732;2023-05-23T08:06:51;6.78;;;4.57;;
8050;SDS011;4068;42.158;24.732;2023-05-23T08:09:17;7.50;;;4.13;;
8050;SDS011;4068;42.158;24.732;2023-05-23T08:11:43;7.40;;;4.95;;
8050;SDS011;4068;42.158;24.732;2023-05-23T08:14:08;8.90;;;4.97;;
8050;SDS011;4068;42.158;24.732;2023-05-23T08:16:34;7.53;;;4.18;;
8050;SDS011;4068;42.158;24.732;2023-05-23T08:19:00;9.30;;;4.80;;
8050;SDS011;4068;42.158;24.732;2023-05-23T08:21:25;7.20;;;4.55;;
8050;SDS011;4068;42.158;24.732;2023-05-23T08:23:51;6.70;;;4.03;;
8050;SDS011;4068;42.158;24.732;2023-05-23T08:26:16;9.07;;;4.05;;
8050;SDS011;4068;42.158;24.732;2023-05-23T08:28:42;5.00;;;3.60;;
8050;SDS011;4068;42.158;24.732;2023-05-23T08:31:07;5.82;;;4.53;;
8050;SDS011;4068;42.158;24.732;2023-05-23T08:33:32;5.03;;;3.75;;
8050;SDS011;4068;42.158;24.732;2023-05-23T08:35:58;6.40;;;3.53;;
8050;SDS011;4068;42.158;24.732;2023-05-23T08:38:23;7.07;;;4.05;;
8050;SDS011;4068;42.158;24.732;2023-05-23T08:40:51;6.45;;;3.78;;
8050;SDS011;4068;42.158;24.732;2023-05-23T08:43:17;4.07;;;3.67;;
8050;SDS011;4068;42.158;24.732;2023-05-23T08:45:43;4.28;;;3.83;;
8050;SDS011;4068;42.158;24.732;2023-05-23T08:48:11;7.93;;;4.28;;
8050;SDS011;4068;42.158;24.732;2023-05-23T08:50:39;7.65;;;4.75;;
8050;SDS011;4068;42.158;24.732;2023-05-23T08:53:06;8.30;;;4.38;;
8050;SDS011;4068;42.158;24.732;2023-05-23T08:55:34;7.22;;;4.15;;
8050;SDS011;4068;42.158;24.732;2023-05-23T08:58:01;6.88;;;3.83;;
8050;SDS011;4068;42.158;24.732;2023-05-23T09:00:27;8.98;;;4.18;;
8050;SDS011;4068;42.158;24.732;2023-05-23T09:02:54;10.63;;;3.97;;
8050;SDS011;4068;42.158;24.732;2023-05-23T09:05:20;8.05;;;4.50;;
8050;SDS011;4068;42.158;24.732;2023-05-23T09:07:46;11.23;;;3.70;;
8050;SDS011;4068;42.158;24.732;2023-05-23T09:10:13;6.43;;;3.90;;
8050;SDS011;4068;42.158;24.732;2023-05-23T09:12:44;7.32;;;3.83;;
8050;SDS011;4068;42.158;24.732;2023-05-23T09:15:10;5.20;;;3.70;;
8050;SDS011;4068;42.158;24.732;2023-05-23T09:17:36;9.43;;;4.07;;
8050;SDS011;4068;42.158;24.732;2023-05-23T09:20:02;6.88;;;3.55;;
8050;SDS011;4068;42.158;24.732;2023-05-23T09:22:31;5.07;;;3.50;;
8050;SDS011;4068;42.158;24.732;2023-05-23T09:24:56;5.68;;;3.85;;
8050;SDS011;4068;42.158;24.732;2023-05-23T09:27:22;4.18;;;3.22;;
8050;SDS011;4068;42.158;24.732;2023-05-23T09:29:48;4.45;;;3.83;;
8050;SDS011;4068;42.158;24.732;2023-05-23T09:32:17;4.57;;;3.40;;
8050;SDS011;4068;42.158;24.732;2023-05-23T09:35:00;4.22;;;3.42;;
8050;SDS011;4068;42.158;24.732;2023-05-23T09:37:31;6.97;;;4.07;;
8050;SDS011;4068;42.158;24.732;2023-05-23T09:40:01;9.98;;;3.95;;
8050;SDS011;4068;42.158;24.732;2023-05-23T09:42:31;6.63;;;3.47;;
8050;SDS011;4068;42.158;24.732;2023-05-23T09:44:58;8.13;;;3.85;;
8050;SDS011;4068;42.158;24.732;2023-05-23T09:47:24;6.57;;;4.38;;
8050;SDS011;4068;42.158;24.732;2023-05-23T09:49:50;13.05;;;4.53;;
8050;SDS011;4068;42.158;24.732;2023-05-23T09:52:15;13.05;;;4.65;;
8050;SDS011;4068;42.158;24.732;2023-05-23T09:54:41;4.47;;;3.40;;
8050;SDS011;4068;42.158;24.732;2023-05-23T09:57:09;6.03;;;4.20;;
8050;SDS011;4068;42.158;24.732;2023-05-23T09:59:40;4.00;;;3.30;;
8050;SDS011;4068;42.158;24.732;2023-05-23T10:02:12;7.10;;;3.80;;
8050;SDS011;4068;42.158;24.732;2023-05-23T10:04:40;12.00;;;3.78;;
8050;SDS011;4068;42.158;24.732;2023-05-23T10:07:13;7.45;;;3.70;;
8050;SDS011;4068;42.158;24.732;2023-05-23T10:09:47;4.18;;;3.60;;
8050;SDS011;4068;42.158;24.732;2023-05-23T10:14:56;11.32;;;3.60;;
8050;SDS011;4068;42.158;24.732;2023-05-23T10:17:40;6.45;;;3.95;;
8050;SDS011;4068;42.158;24.732;2023-05-23T10:20:10;4.95;;;3.33;;
8050;SDS011;4068;42.158;24.732;2023-05-23T10:22:40;6.43;;;3.67;;
8050;SDS011;4068;42.158;24.732;2023-05-23T10:25:06;3.72;;;3.13;;
8050;SDS011;4068;42.158;24.732;2023-05-23T10:27:34;7.00;;;3.63;;
8050;SDS011;4068;42.158;24.732;2023-05-23T10:30:01;5.18;;;3.40;;
8050;SDS011;4068;42.158;24.732;2023-05-23T10:32:27;8.38;;;3.90;;
8050;SDS011;4068;42.158;24.732;2023-05-23T10:35:13;5.85;;;3.70;;
8050;SDS011;4068;42.158;24.732;2023-05-23T10:37:51;7.00;;;3.20;;
8050;SDS011;4068;42.158;24.732;2023-05-23T10:40:57;6.13;;;4.07;;
8050;SDS011;4068;42.158;24.732;2023-05-23T10:44:20;7.53;;;3.53;;
8050;SDS011;4068;42.158;24.732;2023-05-23T10:49:15;10.80;;;4.00;;
8050;SDS011;4068;42.158;24.732;2023-05-23T10:51:41;6.35;;;4.05;;
8050;SDS011;4068;42.158;24.732;2023-05-23T10:54:09;8.90;;;4.78;;
8050;SDS011;4068;42.158;24.732;2023-05-23T10:56:36;10.00;;;4.03;;
8050;SDS011;4068;42.158;24.732;2023-05-23T10:59:03;4.80;;;3.58;;
8050;SDS011;4068;42.158;24.732;2023-05-23T11:01:30;5.78;;;3.90;;
8050;SDS011;4068;42.158;24.732;2023-05-23T11:03:55;7.25;;;4.28;;
8050;SDS011;4068;42.158;24.732;2023-05-23T11:06:43;7.30;;;3.58;;
8050;SDS011;4068;42.158;24.732;2023-05-23T11:09:12;7.13;;;4.18;;
8050;SDS011;4068;42.158;24.732;2023-05-23T11:11:55;7.93;;;4.05;;
8050;SDS011;4068;42.158;24.732;2023-05-23T11:14:52;5.55;;;3.95;;
8050;SDS011;4068;42.158;24.732;2023-05-23T11:17:24;7.07;;;3.92;;
8050;SDS011;4068;42.158;24.732;2023-05-23T11:20:16;8.13;;;4.63;;
8050;SDS011;4068;42.158;24.732;2023-05-23T11:22:47;5.70;;;3.92;;
8050;SDS011;4068;42.158;24.732;2023-05-23T11:25:18;9.18;;;3.85;;
8050;SDS011;4068;42.158;24.732;2023-05-23T11:27:44;7.18;;;3.67;;
8050;SDS011;4068;42.158;24.732;2023-05-23T11:30:14;8.43;;;5.00;;
8050;SDS011;4068;42.158;24.732;2023-05-23T11:32:41;5.78;;;3.55;;
8050;SDS011;4068;42.158;24.732;2023-05-23T11:35:13;7.40;;;3.90;;
8050;SDS011;4068;42.158;24.732;2023-05-23T11:37:40;4.40;;;3.40;;
8050;SDS011;4068;42.158;24.732;2023-05-23T11:40:30;5.05;;;3.53;;
8050;SDS011;4068;42.158;24.732;2023-05-23T11:43:06;4.18;;;3.47;;
8050;SDS011;4068;42.158;24.732;2023-05-23T11:45:42;12.02;;;4.03;;
8050;SDS011;4068;42.158;24.732;2023-05-23T11:48:11;5.05;;;3.40;;
8050;SDS011;4068;42.158;24.732;2023-05-23T11:50:50;7.00;;;3.88;;
8050;SDS011;4068;42.158;24.732;2023-05-23T11:53:18;5.95;;;3.55;;
8050;SDS011;4068;42.158;24.732;2023-05-23T11:55:55;4.85;;;3.22;;
8050;SDS011;4068;42.158;24.732;2023-05-23T11:58:25;6.30;;;3.65;;
8050;SDS011;4068;42.158;24.732;2023-05-23T12:00:59;4.40;;;3.47;;
8050;SDS011;4068;42.158;24.732;2023-05-23T12:03:27;7.10;;;3.65;;
8050;SDS011;4068;42.158;24.732;2023-05-23T12:05:56;4.03;;;3.10;;
8050;SDS011;4068;42.158;24.732;2023-05-23T12:08:26;12.18;;;3.72;;
8050;SDS011;4068;42.158;24.732;2023-05-23T12:10:58;9.52;;;4.00;;
8050;SDS011;4068;42.158;24.732;2023-05-23T12:13:25;8.25;;;4.38;;
8050;SDS011;4068;42.158;24.732;2023-05-23T12:15:54;15.45;;;3.42;;
8050;SDS011;4068;42.158;24.732;2023-05-23T12:18:20;12.20;;;4.25;;
8050;SDS011;4068;42.158;24.732;2023-05-23T12:20:47;10.38;;;3.80;;
8050;SDS011;4068;42.158;24.732;2023-05-23T12:23:22;8.68;;;3.67;;
8050;SDS011;4068;42.158;24.732;2023-05-23T12:25:51;6.95;;;3.67;;
8050;SDS011;4068;42.158;24.732;2023-05-23T12:28:18;7.28;;;3.42;;
8050;SDS011;4068;42.158;24.732;2023-05-23T12:30:45;7.38;;;3.47;;
8050;SDS011;4068;42.158;24.732;2023-05-23T12:33:10;5.63;;;3.13;;
8050;SDS011;4068;42.158;24.732;2023-05-23T12:35:37;3.42;;;2.80;;
8050;SDS011;4068;42.158;24.732;2023-05-23T12:38:08;5.45;;;3.17;;
8050;SDS011;4068;42.158;24.732;2023-05-23T12:40:34;9.02;;;3.38;;
8050;SDS011;4068;42.158;24.732;2023-05-23T12:43:00;4.95;;;3.15;;
8050;SDS011;4068;42.158;24.732;2023-05-23T12:45:32;12.27;;;4.10;;
8050;SDS011;4068;42.158;24.732;2023-05-23T12:48:00;10.73;;;3.67;;
8050;SDS011;4068;42.158;24.732;2023-05-23T12:50:30;6.20;;;3.70;;
8050;SDS011;4068;42.158;24.732;2023-05-23T12:52:55;4.40;;;3.22;;
8050;SDS011;4068;42.158;24.732;2023-05-23T12:55:21;6.38;;;4.00;;
8050;SDS011;4068;42.158;24.732;2023-05-23T12:57:47;7.72;;;4.22;;
8050;SDS011;4068;42.158;24.732;2023-05-23T13:00:12;7.93;;;3.83;;
8050;SDS011;4068;42.158;24.732;2023-05-23T13:02:38;7.82;;;3.53;;
8050;SDS011;4068;42.158;24.732;2023-05-23T13:05:04;4.65;;;3.30;;
8050;SDS011;4068;42.158;24.732;2023-05-23T13:07:30;8.27;;;4.30;;
8050;SDS011;4068;42.158;24.732;2023-05-23T13:09:55;7.35;;;4.25;;
8050;SDS011;4068;42.158;24.732;2023-05-23T13:12:21;18.20;;;3.70;;
8050;SDS011;4068;42.158;24.732;2023-05-23T13:14:47;5.03;;;3.58;;
8050;SDS011;4068;42.158;24.732;2023-05-23T13:17:12;8.02;;;3.80;;
8050;SDS011;4068;42.158;24.732;2023-05-23T13:19:38;3.95;;;3.55;;
8050;SDS011;4068;42.158;24.732;2023-05-23T13:22:04;4.30;;;3.45;;
8050;SDS011;4068;42.158;24.732;2023-05-23T13:24:30;5.80;;;3.17;;
8050;SDS011;4068;42.158;24.732;2023-05-23T13:26:55;9.38;;;3.70;;
8050;SDS011;4068;42.158;24.732;2023-05-23T13:29:21;8.20;;;3.88;;
8050;SDS011;4068;42.158;24.732;2023-05-23T13:31:47;7.72;;;3.63;;
8050;SDS011;4068;42.158;24.732;2023-05-23T13:34:12;11.25;;;4.38;;
8050;SDS011;4068;42.158;24.732;2023-05-23T13:36:38;7.20;;;3.63;;
8050;SDS011;4068;42.158;24.732;2023-05-23T13:39:03;6.70;;;3.05;;
8050;SDS011;4068;42.158;24.732;2023-05-23T13:41:28;7.95;;;3.80;;
8050;SDS011;4068;42.158;24.732;2023-05-23T13:43:54;11.13;;;4.43;;
8050;SDS011;4068;42.158;24.732;2023-05-23T13:46:20;4.57;;;3.38;;
8050;SDS011;4068;42.158;24.732;2023-05-23T13:48:45;7.47;;;3.40;;
8050;SDS011;4068;42.158;24.732;2023-05-23T13:51:11;7.10;;;3.25;;
8050;SDS011;4068;42.158;24.732;2023-05-23T13:53:36;9.10;;;5.13;;
8050;SDS011;4068;42.158;24.732;2023-05-23T13:56:02;12.25;;;5.13;;
8050;SDS011;4068;42.158;24.732;2023-05-23T13:58:27;7.13;;;4.15;;
8050;SDS011;4068;42.158;24.732;2023-05-23T14:00:53;8.90;;;3.58;;
8050;SDS011;4068;42.158;24.732;2023-05-23T14:03:19;5.75;;;2.90;;
8050;SDS011;4068;42.158;24.732;2023-05-23T14:05:44;7.60;;;3.38;;
8050;SDS011;4068;42.158;24.732;2023-05-23T14:08:10;5.13;;;3.33;;
8050;SDS011;4068;42.158;24.732;2023-05-23T14:10:37;6.90;;;3.30;;
8050;SDS011;4068;42.158;24.732;2023-05-23T14:13:02;5.35;;;3.30;;
8050;SDS011;4068;42.158;24.732;2023-05-23T14:15:28;3.97;;;3.08;;
8050;SDS011;4068;42.158;24.732;2023-05-23T14:17:53;6.30;;;3.38;;
8050;SDS011;4068;42.158;24.732;2023-05-23T14:20:19;5.68;;;3.80;;
8050;SDS011;4068;42.158;24.732;2023-05-23T14:22:48;4.43;;;3.50;;
8050;SDS011;4068;42.158;24.732;2023-05-23T14:25:15;4.22;;;3.17;;
8050;SDS011;4068;42.158;24.732;2023-05-23T14:27:40;5.47;;;2.80;;
8050;SDS011;4068;42.158;24.732;2023-05-23T14:30:06;6.63;;;3.40;;
8050;SDS011;4068;42.158;24.732;2023-05-23T14:32:32;4.20;;;3.50;;
8050;SDS011;4068;42.158;24.732;2023-05-23T14:35:02;9.15;;;4.45;;
8050;SDS011;4068;42.158;24.732;2023-05-23T14:37:32;8.98;;;4.10;;
8050;SDS011;4068;42.158;24.732;2023-05-23T14:39:57;4.75;;;4.00;;
8050;SDS011;4068;42.158;24.732;2023-05-23T14:42:23;5.07;;;3.60;;
8050;SDS011;4068;42.158;24.732;2023-05-23T14:44:48;5.47;;;3.53;;
8050;SDS011;4068;42.158;24.732;2023-05-23T14:47:14;5.30;;;3.20;;
8050;SDS011;4068;42.158;24.732;2023-05-23T14:49:39;8.23;;;3.60;;
8050;SDS011;4068;42.158;24.732;2023-05-23T14:52:05;5.25;;;3.30;;
8050;SDS011;4068;42.158;24.732;2023-05-23T14:54:30;4.13;;;3.40;;
8050;SDS011;4068;42.158;24.732;2023-05-23T14:56:56;5.57;;;3.30;;
8050;SDS011;4068;42.158;24.732;2023-05-23T14:59:22;5.35;;;3.28;;
8050;SDS011;4068;42.158;24.732;2023-05-23T15:01:47;5.32;;;3.58;;
8050;SDS011;4068;42.158;24.732;2023-05-23T15:04:13;6.28;;;3.92;;
8050;SDS011;4068;42.158;24.732;2023-05-23T15:06:40;6.90;;;5.00;;
8050;SDS011;4068;42.158;24.732;2023-05-23T15:09:06;8.77;;;5.30;;
8050;SDS011;4068;42.158;24.732;2023-05-23T15:11:33;12.60;;;5.82;;
8050;SDS011;4068;42.158;24.732;2023-05-23T15:14:01;11.32;;;6.03;;